Date,TemperatureHighF,TemperatureAvgF,TemperatureLowF,DewpointHighF,DewpointAvgF,DewpointLowF,HumidityHigh,HumidityAvg,HumidityLow,PressureMaxIn,PressureMinIn,WindSpeedMaxMPH,WindSpeedAvgMPH,GustSpeedMaxMPH,PrecipitationSumIn
2013-4-1,72.7,62.5,43.3,60.7,51.0,39.1,98,68,43,30.33,29.82,12,3,13,20.91
2013-4-2,69.6,50.3,46.2,45.3,37.3,14.5,86,64,15,30.15,29.94,13,1,13,0.00
2013-4-3,66.9,54.6,49.3,48.3,28.8,12.0,92,43,15,30.27,30.06,18,4,20,0.00
2013-4-4,60.4,50.9,45.0,59.9,46.7,32.6,98,87,50,30.24,29.79,23,6,23,1.00
2013-4-5,60.6,48.6,42.1,44.4,40.9,37.1,98,77,42,30.03,29.82,23,4,23,0.04
2013-4-6,71.6,54.1,40.5,50.0,35.7,20.6,98,57,17,30.27,30.00,20,4,20,0.00
2013-4-7,74.5,57.6,37.9,52.6,43.0,34.8,98,63,31,30.27,30.12,14,3,14,0.00
2013-4-8,77.7,65.6,51.4,62.6,51.0,42.5,98,65,30,30.18,30.06,15,4,16,0.00
2013-4-9,79.9,68.2,55.8,64.4,56.2,49.3,98,69,36,30.24,30.09,13,5,14,0.00
2013-4-10,79.3,69.3,61.3,64.1,55.3,45.7,97,65,33,30.18,30.03,18,5,18,0.00
2013-4-13,81.7,61.8,48.7,50.0,41.3,26.6,90,53,14,30.09,29.82,12,4,12,0.00
2013-4-14,76.6,63.5,47.7,66.6,48.7,34.1,98,64,22,30.18,30.03,10,3,10,0.04
2013-4-15,75.7,66.4,57.9,59.8,53.5,48.3,96,66,40,30.21,29.97,11,4,11,0.95
2013-4-16,81.1,68.9,57.2,59.0,54.5,49.3,98,65,33,30.27,30.18,12,4,12,0.00
2013-4-17,82.8,69.0,55.8,65.4,55.1,47.8,98,66,30,30.27,30.12,10,2,10,0.00
2013-4-18,81.3,69.4,58.3,68.3,59.5,49.6,98,75,35,30.21,30.00,19,4,19,0.09
2013-4-19,76.6,69.5,66.6,68.0,65.4,60.6,98,88,62,30.06,29.88,22,7,24,0.62
2013-4-20,66.7,54.4,42.1,66.2,40.7,25.9,98,65,26,30.27,29.88,17,4,19,0.12
2013-4-21,72.1,56.2,41.2,42.8,30.3,20.1,95,44,17,30.39,30.24,22,6,115,0.00
2013-4-22,67.5,55.0,44.6,45.5,37.1,28.0,79,53,32,30.33,30.12,24,8,24,0.00
2013-4-30,78.8,69.9,59.4,60.6,54.2,44.1,89,60,35,30.15,30.03,13,4,14,1.74
2013-5-1,79.2,65.4,58.3,63.4,54.8,42.2,96,72,29,30.21,30.06,13,5,16,0.00
2013-5-2,77.7,65.5,57.6,59.5,52.2,43.5,88,64,31,30.24,30.15,172,6,172,0.00
2013-5-3,68.7,60.4,54.0,57.9,45.0,29.8,86,59,33,30.18,30.06,17,6,20,0.04
2013-5-4,70.9,60.5,52.2,54.1,45.6,39.8,86,60,35,30.09,29.94,19,7,21,0.00
2013-5-5,73.8,64.1,56.7,60.2,52.7,42.4,86,69,36,30.00,29.85,26,7,115,0.00
2013-5-6,80.8,67.3,57.7,65.1,48.7,27.8,89,55,18,29.91,29.82,18,5,20,0.00
2013-5-7,75.7,62.7,51.4,52.5,43.1,27.5,83,53,18,29.97,29.88,15,3,16,0.00
2013-5-8,77.0,66.4,52.0,57.0,47.1,31.7,94,54,22,30.03,29.94,15,5,17,0.34
2013-5-9,85.5,71.7,61.0,59.3,50.3,38.2,82,51,20,30.12,29.97,13,4,13,0.00
2013-5-10,84.4,72.3,59.7,65.9,54.5,45.7,90,58,29,30.12,30.00,15,4,19,0.00
2013-5-11,81.1,72.8,66.6,68.5,59.7,46.7,95,66,34,30.03,29.82,16,5,16,0.00
2013-5-12,86.5,73.1,59.7,64.1,42.5,24.4,82,40,13,29.97,29.82,14,4,15,0.00
2013-5-13,77.0,61.9,45.1,34.2,23.6,14.4,63,26,13,30.15,29.97,18,5,20,0.00
2013-5-14,78.4,63.5,44.8,39.3,24.1,16.1,74,27,13,30.30,30.12,16,5,16,0.00
2013-7-4,90.1,82.4,77.7,69.5,62.1,53.1,75,53,30,30.27,30.18,12,6,12,0.00
2013-7-5,89.8,82.2,77.0,70.3,63.5,55.5,77,55,33,30.30,30.15,11,5,11,0.00
2013-7-6,90.7,82.6,75.2,68.8,59.2,51.1,75,48,27,30.27,30.15,12,5,12,0.00
2013-7-7,91.8,82.7,75.0,65.6,57.0,47.2,70,44,24,30.24,30.06,12,5,12,0.00
2013-7-8,92.7,82.2,70.7,70.6,56.6,43.8,85,45,19,30.18,30.06,10,3,10,0.00
2013-7-9,91.4,82.5,73.6,67.1,59.0,51.2,77,47,27,30.18,30.06,11,4,11,0.00
2013-7-10,91.8,82.5,72.5,69.5,59.0,50.4,79,47,26,30.12,29.94,16,4,227,0.00
2013-8-20,96.6,80.1,72.0,79.7,66.2,54.1,95,66,26,30.18,30.06,10,3,10,6.55
2013-8-21,95.9,78.0,70.9,77.3,66.4,49.1,98,74,21,30.24,30.06,9,2,9,0.00
2013-8-22,94.3,78.1,70.5,74.4,66.3,50.5,95,68,23,30.15,30.00,8,2,8,0.00
2013-8-23,97.9,82.6,73.6,71.6,61.1,42.4,87,54,17,30.06,29.88,13,4,15,0.00
2013-8-24,88.0,75.3,67.5,69.5,54.7,37.5,92,53,19,30.24,30.00,13,4,14,0.04
2013-8-25,88.0,73.7,63.3,58.8,47.9,34.2,83,46,16,30.30,30.18,19,5,172,0.00
2013-8-26,94.3,74.5,63.3,59.2,46.5,28.1,79,45,11,30.27,30.09,10,3,12,0.00
2013-8-27,90.7,77.4,64.0,65.6,48.1,30.6,92,43,12,30.12,29.94,11,3,12,0.00
2013-8-28,94.6,81.7,71.6,65.0,55.1,42.1,66,43,18,30.00,29.88,11,4,13,0.00
2013-8-29,99.1,81.7,73.0,70.7,57.8,42.8,89,50,16,29.97,29.82,15,4,15,0.00
2013-8-30,89.6,77.2,68.9,69.9,61.4,51.4,97,63,29,30.03,29.94,12,3,12,0.00
2013-8-31,95.0,81.3,69.8,74.0,62.8,46.2,98,60,20,30.00,29.85,10,3,15,0.00
2013-9-1,94.5,83.0,74.5,74.7,65.2,53.2,92,58,27,29.97,29.82,18,5,18,0.00
2013-9-2,93.4,84.2,76.8,72.1,64.5,49.7,77,55,24,29.91,29.79,15,6,15,0.09
2013-9-3,91.2,78.6,71.8,71.0,62.0,52.2,90,60,29,29.97,29.79,18,3,18,0.00
2013-9-4,98.2,81.0,71.1,73.1,62.9,43.7,95,61,17,30.06,29.91,13,2,13,0.00
2013-9-5,98.2,80.9,71.8,79.9,63.4,47.5,97,61,20,30.09,29.94,9,2,10,0.00
2013-9-6,96.4,78.7,67.8,68.7,52.4,31.0,90,47,11,30.12,29.97,13,4,13,0.00
2013-9-7,92.5,75.5,64.4,63.0,48.1,29.8,81,47,12,30.09,29.94,11,3,14,0.00
2013-9-8,92.7,77.7,63.0,66.5,53.2,40.4,90,49,17,29.97,29.88,10,3,11,0.00
2013-9-9,93.9,79.2,67.8,68.8,55.1,40.5,86,51,17,30.15,29.97,14,2,14,0.00